createdAt,value
2022-09-23T00:00:43.708Z,99.99
2022-09-23T00:01:43.789Z,99.99
2022-09-23T00:02:43.681Z,99.99
2022-09-23T00:03:43.610Z,99.99
2022-09-23T00:04:43.597Z,99.99
2022-09-23T00:05:43.586Z,99.99
2022-09-23T00:06:43.595Z,99.99
2022-09-23T00:07:43.566Z,99.99
2022-09-23T00:08:43.554Z,99.99
2022-09-23T00:09:43.547Z,99.99
2022-09-23T00:10:43.540Z,99.99
2022-09-23T00:11:43.540Z,99.99
2022-09-23T00:12:43.525Z,99.99
2022-09-23T00:13:43.503Z,99.99
2022-09-23T00:14:43.485Z,99.99
2022-09-23T00:15:43.475Z,99.99
2022-09-23T00:16:43.610Z,99.99
2022-09-23T00:17:43.458Z,99.99
2022-09-23T00:18:43.448Z,99.99
2022-09-23T00:19:43.432Z,99.99
2022-09-23T00:20:43.425Z,99.99
2022-09-23T00:21:43.426Z,99.99
2022-09-23T00:22:43.399Z,99.99
2022-09-23T00:23:43.386Z,99.99
2022-09-23T00:24:43.379Z,99.99
2022-09-23T00:25:43.385Z,99.99
2022-09-23T00:26:43.382Z,99.99
2022-09-23T00:27:43.347Z,99.99
2022-09-23T00:28:43.337Z,99.99
2022-09-23T00:29:43.323Z,99.99
2022-09-23T00:30:43.395Z,99.99
2022-09-23T00:31:43.322Z,99.99
2022-09-23T00:32:43.312Z,99.99
2022-09-23T00:33:43.320Z,99.99
2022-09-23T00:34:43.290Z,99.99
2022-09-23T00:35:43.414Z,99.99
2022-09-23T00:36:43.255Z,99.99
2022-09-23T00:37:43.239Z,99.99
2022-09-23T00:38:43.224Z,99.99
2022-09-23T00:39:43.239Z,99.99
2022-09-23T00:40:43.242Z,99.99
2022-09-23T00:41:43.205Z,99.99
2022-09-23T00:42:43.185Z,99.99
2022-09-23T00:43:43.197Z,99.99
2022-09-23T00:44:43.164Z,99.99
2022-09-23T00:45:43.333Z,99.99
2022-09-23T00:46:43.141Z,99.99
2022-09-23T00:47:43.131Z,99.99
2022-09-23T00:48:43.164Z,99.99
2022-09-23T00:49:43.108Z,99.99
2022-09-23T00:50:43.099Z,99.99
2022-09-23T00:51:43.089Z,99.99
2022-09-23T00:52:43.080Z,99.99
2022-09-23T00:53:43.093Z,99.99
2022-09-23T00:54:43.058Z,99.99
2022-09-23T00:55:43.046Z,99.99
2022-09-23T00:56:43.030Z,99.99
2022-09-23T00:57:43.021Z,99.99
2022-09-23T00:58:43.011Z,99.99
2022-09-23T00:59:43.021Z,99.99
2022-09-23T01:00:43.004Z,99.99
2022-09-23T01:01:43.053Z,99.99
2022-09-23T01:02:43.028Z,99.99
2022-09-23T01:03:42.954Z,99.99
2022-09-23T01:04:43.023Z,99.99
2022-09-23T01:05:42.939Z,99.99
2022-09-23T01:06:42.942Z,99.99
2022-09-23T01:07:42.912Z,99.99
2022-09-23T01:08:42.906Z,99.99
2022-09-23T01:09:42.890Z,99.99
2022-09-23T01:10:42.886Z,99.99
2022-09-23T01:11:42.897Z,99.99
2022-09-23T01:12:42.893Z,99.99
2022-09-23T01:13:42.846Z,99.99
2022-09-23T01:14:42.844Z,99.99
2022-09-23T01:15:42.829Z,99.99
2022-09-23T01:16:42.914Z,99.99
2022-09-23T01:17:42.807Z,99.99
2022-09-23T01:18:42.794Z,99.99
2022-09-23T01:19:42.789Z,99.99
2022-09-23T01:20:42.793Z,99.99
2022-09-23T01:21:42.794Z,99.99
2022-09-23T01:22:42.756Z,99.99
2022-09-23T01:23:42.737Z,99.99
2022-09-23T01:24:42.731Z,99.99
2022-09-23T01:25:42.718Z,99.99
2022-09-23T01:26:42.715Z,99.99
2022-09-23T01:27:42.712Z,99.99
2022-09-23T01:28:42.713Z,99.99
2022-09-23T01:29:42.674Z,99.99
2022-09-23T01:30:42.733Z,99.99
2022-09-23T01:31:42.654Z,99.99
2022-09-23T01:32:42.642Z,99.99
2022-09-23T01:33:42.655Z,99.99
2022-09-23T01:34:42.620Z,99.99
2022-09-23T01:35:42.626Z,99.99
2022-09-23T01:36:42.623Z,99.99
2022-09-23T01:37:42.615Z,99.99
2022-09-23T01:38:42.581Z,99.99
2022-09-23T01:39:42.570Z,99.99
2022-09-23T01:40:42.612Z,99.99
2022-09-23T01:41:42.546Z,99.99
2022-09-23T01:42:42.551Z,99.99
2022-09-23T01:43:42.553Z,99.99
2022-09-23T01:44:42.515Z,99.99
2022-09-23T01:45:42.513Z,99.99
2022-09-23T01:46:42.496Z,99.99
2022-09-23T01:47:42.511Z,99.99
2022-09-23T01:48:42.504Z,99.99
2022-09-23T01:49:42.467Z,99.99
2022-09-23T01:50:42.450Z,99.99
2022-09-23T01:51:42.440Z,99.99
2022-09-23T01:52:42.545Z,99.99
2022-09-23T01:53:42.415Z,99.99
2022-09-23T01:54:42.423Z,99.99
2022-09-23T01:55:42.394Z,99.99
2022-09-23T01:56:42.382Z,99.99
2022-09-23T01:57:42.401Z,99.99
2022-09-23T01:58:42.365Z,99.99
2022-09-23T01:59:49.476Z,99.99
2022-09-23T02:00:42.344Z,99.99
2022-09-23T02:01:42.434Z,99.99
2022-09-23T02:02:42.376Z,99.99
2022-09-23T02:03:42.368Z,99.99
2022-09-23T02:04:42.300Z,99.99
2022-09-23T02:05:42.303Z,99.99
2022-09-23T02:06:42.317Z,99.99
2022-09-23T02:07:42.282Z,99.99
2022-09-23T02:08:42.303Z,99.99
2022-09-23T02:09:42.244Z,99.99
2022-09-23T02:10:42.258Z,99.99
2022-09-23T02:11:42.247Z,99.99
2022-09-23T02:12:42.233Z,99.99
2022-09-23T02:13:42.214Z,99.99
2022-09-23T02:14:42.199Z,99.99
2022-09-23T02:15:42.212Z,99.99
2022-09-23T02:16:42.253Z,99.99
2022-09-23T02:17:42.185Z,99.99
2022-09-23T02:18:42.158Z,99.99
2022-09-23T02:19:42.150Z,99.99
2022-09-23T02:20:42.147Z,99.99
2022-09-23T02:21:42.140Z,99.99
2022-09-23T02:22:42.106Z,99.99
2022-09-23T02:23:42.098Z,99.99
2022-09-23T02:24:42.101Z,99.99
2022-09-23T02:25:42.075Z,99.99
2022-09-23T02:26:42.097Z,99.99
2022-09-23T02:27:42.067Z,99.99
2022-09-23T02:28:42.037Z,99.99
2022-09-23T02:29:42.027Z,99.99
2022-09-23T02:30:42.031Z,99.99
2022-09-23T02:31:42.098Z,99.99
2022-09-23T02:32:42.029Z,99.99
2022-09-23T02:33:41.989Z,99.99
2022-09-23T02:34:41.979Z,99.99
2022-09-23T02:35:41.967Z,99.99
2022-09-23T02:36:41.984Z,99.99
2022-09-23T02:37:41.994Z,99.99
2022-09-23T02:38:41.940Z,99.99
2022-09-23T02:39:41.929Z,99.99
2022-09-23T02:40:42.086Z,99.99
2022-09-23T02:41:41.968Z,99.99
2022-09-23T02:42:41.907Z,99.99
2022-09-23T02:43:41.873Z,99.99
2022-09-23T02:44:41.923Z,99.99
2022-09-23T02:45:41.928Z,99.99
2022-09-23T02:46:41.902Z,99.99
2022-09-23T02:47:41.856Z,99.99
2022-09-23T02:48:41.859Z,99.99
2022-09-23T02:49:41.811Z,99.99
2022-09-23T02:50:41.809Z,99.99
2022-09-23T02:51:41.797Z,99.99
2022-09-23T02:52:41.796Z,99.99
2022-09-23T02:53:41.817Z,99.99
2022-09-23T02:54:41.758Z,99.99
2022-09-23T02:55:41.749Z,99.99
2022-09-23T02:56:41.751Z,99.99
2022-09-23T02:57:41.752Z,99.99
2022-09-23T02:58:41.748Z,99.99
2022-09-23T02:59:41.712Z,99.99
2022-09-23T03:00:41.708Z,99.99
2022-09-23T03:01:41.761Z,99.99
2022-09-23T03:02:41.861Z,99.99
2022-09-23T03:03:41.664Z,99.99
2022-09-23T03:04:41.647Z,99.99
2022-09-23T03:05:41.669Z,99.99
2022-09-23T03:06:41.631Z,99.99
2022-09-23T03:07:41.636Z,99.99
2022-09-23T03:08:41.602Z,99.99
2022-09-23T03:09:41.587Z,99.99
2022-09-23T03:10:41.589Z,99.99
2022-09-23T03:11:41.574Z,99.99
2022-09-23T03:12:41.603Z,99.99
2022-09-23T03:13:41.621Z,99.99
2022-09-23T03:14:41.556Z,99.99
2022-09-23T03:15:41.563Z,99.99
2022-09-23T03:16:41.586Z,99.99
2022-09-23T03:17:41.521Z,99.99
2022-09-23T03:18:41.534Z,99.99
2022-09-23T03:19:41.542Z,99.99
2022-09-23T03:20:41.516Z,99.99
2022-09-23T03:21:41.461Z,99.99
2022-09-23T03:22:41.482Z,99.99
2022-09-23T03:23:41.444Z,99.99
2022-09-23T03:24:41.425Z,99.99
2022-09-23T03:25:41.446Z,99.99
2022-09-23T03:26:41.413Z,99.99
2022-09-23T03:27:41.476Z,99.99
2022-09-23T03:28:41.405Z,99.99
2022-09-23T03:29:41.381Z,99.99
2022-09-23T03:30:41.364Z,99.99
2022-09-23T03:31:41.436Z,99.99
2022-09-23T03:32:41.356Z,99.99
2022-09-23T03:33:41.332Z,99.99
2022-09-23T03:34:41.351Z,99.99
2022-09-23T03:35:41.303Z,99.99
2022-09-23T03:36:41.329Z,99.99
2022-09-23T03:37:41.329Z,99.99
2022-09-23T03:38:41.283Z,99.99
2022-09-23T03:39:41.272Z,99.99
2022-09-23T03:40:41.334Z,99.99
2022-09-23T03:41:41.283Z,99.99
2022-09-23T03:42:41.239Z,99.99
2022-09-23T03:43:41.232Z,99.99
2022-09-23T03:44:41.258Z,99.99
2022-09-23T03:45:41.260Z,99.99
2022-09-23T03:46:41.192Z,99.99
2022-09-23T03:47:41.234Z,99.99
2022-09-23T03:48:41.189Z,99.99
2022-09-23T03:49:41.168Z,99.99
2022-09-23T03:50:41.188Z,99.99
2022-09-23T03:51:44.536Z,99.99
2022-09-23T03:52:41.193Z,99.99
2022-09-23T03:53:41.112Z,99.99
2022-09-23T03:54:41.094Z,99.99
2022-09-23T03:55:41.148Z,99.99
2022-09-23T03:56:41.085Z,99.99
2022-09-23T03:57:41.109Z,99.99
2022-09-23T03:58:41.059Z,99.99
2022-09-23T03:59:41.062Z,99.99
2022-09-23T04:00:41.131Z,99.99
2022-09-23T04:01:41.079Z,99.99
2022-09-23T04:02:41.029Z,99.99
2022-09-23T04:03:41.041Z,99.99
2022-09-23T04:04:41.018Z,99.99
2022-09-23T04:05:41.086Z,99.99
2022-09-23T04:06:40.983Z,99.99
2022-09-23T04:07:41.014Z,99.99
2022-09-23T04:08:40.945Z,99.99
2022-09-23T04:09:40.981Z,99.99
2022-09-23T04:10:40.957Z,99.99
2022-09-23T04:11:40.955Z,99.99
2022-09-23T04:12:40.914Z,99.99
2022-09-23T04:13:40.899Z,99.99
2022-09-23T04:14:40.928Z,99.99
2022-09-23T04:15:40.912Z,99.99
2022-09-23T04:16:40.902Z,99.99
2022-09-23T04:17:40.874Z,99.99
2022-09-23T04:18:40.846Z,99.99
2022-09-23T04:19:40.846Z,99.99
2022-09-23T04:20:40.846Z,99.99
2022-09-23T04:21:40.860Z,99.99
2022-09-23T04:22:40.873Z,99.99
2022-09-23T04:23:40.790Z,99.99
2022-09-23T04:24:40.784Z,99.99
2022-09-23T04:25:40.793Z,99.99
2022-09-23T04:26:40.761Z,99.99
2022-09-23T04:27:40.806Z,99.99
2022-09-23T04:28:40.734Z,99.99
2022-09-23T04:29:40.796Z,99.99
2022-09-23T04:30:40.722Z,99.99
2022-09-23T04:31:40.917Z,99.99
2022-09-23T04:32:40.744Z,99.99
2022-09-23T04:33:40.701Z,99.99
2022-09-23T04:34:40.678Z,99.99
2022-09-23T04:35:40.704Z,99.99
2022-09-23T04:36:40.670Z,99.99
2022-09-23T04:37:40.658Z,99.99
2022-09-23T04:38:40.652Z,99.99
2022-09-23T04:39:40.642Z,99.99
2022-09-23T04:40:40.696Z,99.99
2022-09-23T04:41:40.610Z,99.99
2022-09-23T04:42:40.639Z,99.99
2022-09-23T04:43:40.643Z,99.99
2022-09-23T04:44:40.603Z,99.99
2022-09-23T04:45:40.562Z,99.99
2022-09-23T04:46:40.616Z,99.99
2022-09-23T04:47:40.542Z,99.99
2022-09-23T04:48:40.559Z,99.99
2022-09-23T04:49:40.553Z,99.99
2022-09-23T04:50:40.509Z,99.99
2022-09-23T04:51:40.498Z,99.99
2022-09-23T04:52:40.479Z,99.99
2022-09-23T04:53:40.479Z,99.99
2022-09-23T04:54:40.551Z,99.99
2022-09-23T04:55:40.475Z,99.99
2022-09-23T04:56:40.442Z,99.99
2022-09-23T04:57:40.435Z,99.99
2022-09-23T04:58:40.421Z,99.99
2022-09-23T04:59:40.465Z,99.99
2022-09-23T05:00:40.456Z,99.99
2022-09-23T05:01:40.584Z,99.99
2022-09-23T05:02:40.427Z,99.99
2022-09-23T05:03:40.388Z,99.99
2022-09-23T05:04:40.423Z,99.99
2022-09-23T05:05:40.391Z,99.99
2022-09-23T05:06:40.342Z,99.99
2022-09-23T05:07:40.325Z,99.99
2022-09-23T05:08:40.315Z,99.99
2022-09-23T05:09:40.331Z,99.99
2022-09-23T05:10:40.328Z,99.99
2022-09-23T05:11:40.288Z,99.99
2022-09-23T05:12:40.338Z,99.99
2022-09-23T05:13:40.322Z,99.99
2022-09-23T05:14:40.320Z,99.99
2022-09-23T05:15:40.301Z,99.99
2022-09-23T05:16:40.309Z,99.99
2022-09-23T05:17:40.237Z,99.99
2022-09-23T05:18:40.233Z,99.99
2022-09-23T05:19:40.203Z,99.99
2022-09-23T05:20:40.240Z,99.99
2022-09-23T05:21:40.221Z,99.99
2022-09-23T05:22:40.183Z,99.99
2022-09-23T05:23:40.186Z,99.99
2022-09-23T05:24:40.143Z,99.99
2022-09-23T05:25:40.182Z,99.99
2022-09-23T05:26:40.130Z,99.99
2022-09-23T05:27:40.149Z,99.99
2022-09-23T05:28:40.145Z,99.99
2022-09-23T05:29:40.106Z,99.99
2022-09-23T05:30:40.081Z,99.99
2022-09-23T05:31:40.144Z,99.99
2022-09-23T05:32:40.069Z,99.99
2022-09-23T05:33:40.065Z,99.99
2022-09-23T05:34:40.074Z,99.99
2022-09-23T05:35:40.060Z,99.99
2022-09-23T05:36:40.071Z,99.99
2022-09-23T05:37:40.027Z,99.99
2022-09-23T05:38:39.996Z,99.99
2022-09-23T05:39:40.018Z,99.99
2022-09-23T05:40:40.065Z,99.99
2022-09-23T05:41:39.967Z,99.99
2022-09-23T05:42:39.962Z,99.99
2022-09-23T05:43:39.953Z,99.99
2022-09-23T05:44:39.980Z,99.99
2022-09-23T05:45:39.961Z,99.99
2022-09-23T05:46:39.984Z,99.99
2022-09-23T05:47:39.906Z,99.99
2022-09-23T05:48:39.932Z,99.99
2022-09-23T05:49:58.651Z,99.99
2022-09-23T05:50:40.872Z,99.99
2022-09-23T05:51:39.888Z,99.99
2022-09-23T05:52:39.867Z,99.99
2022-09-23T05:53:39.845Z,99.99
2022-09-23T05:54:39.863Z,99.99
2022-09-23T05:55:39.821Z,99.99
2022-09-23T05:56:39.834Z,99.99
2022-09-23T05:57:39.804Z,99.99
2022-09-23T05:58:39.824Z,99.99
2022-09-23T05:59:39.778Z,99.99
2022-09-23T06:00:39.796Z,99.99
2022-09-23T06:01:39.873Z,99.99
2022-09-23T06:02:39.838Z,99.99
2022-09-23T06:03:39.744Z,99.99
2022-09-23T06:04:39.742Z,99.99
2022-09-23T06:05:39.749Z,99.99
2022-09-23T06:06:39.722Z,99.99
2022-09-23T06:07:39.687Z,99.99
2022-09-23T06:08:39.699Z,99.99
2022-09-23T06:09:39.685Z,99.99
2022-09-23T06:10:39.673Z,99.99
2022-09-23T06:11:39.723Z,99.99
2022-09-23T06:12:39.642Z,99.99
2022-09-23T06:13:39.640Z,99.99
2022-09-23T06:14:39.616Z,99.99
2022-09-23T06:15:39.701Z,99.99
2022-09-23T06:16:39.624Z,99.99
2022-09-23T06:17:39.601Z,99.99
2022-09-23T06:18:39.570Z,99.99
2022-09-23T06:19:39.573Z,99.99
2022-09-23T06:20:39.557Z,99.99
2022-09-23T06:21:39.583Z,99.99
2022-09-23T06:22:40.249Z,99.99
2022-09-23T06:23:41.529Z,99.99
2022-09-23T06:24:39.636Z,99.99
2022-09-23T06:25:39.520Z,99.99
2022-09-23T06:26:39.561Z,99.99
2022-09-23T06:27:39.489Z,99.99
2022-09-23T06:28:39.467Z,99.99
2022-09-23T06:29:39.489Z,99.99
2022-09-23T06:30:39.469Z,99.99
2022-09-23T06:31:39.453Z,99.99
2022-09-23T06:32:39.437Z,99.99
2022-09-23T06:33:39.423Z,99.99
2022-09-23T06:34:49.874Z,99.99
2022-09-23T06:35:40.936Z,99.99
2022-09-23T06:36:43.983Z,99.99
2022-09-23T06:37:40.426Z,99.99
2022-09-23T06:38:39.381Z,99.99
2022-09-23T06:39:39.366Z,99.99
2022-09-23T06:40:39.441Z,99.99
2022-09-23T06:41:39.464Z,99.99
2022-09-23T06:42:39.348Z,99.99
2022-09-23T06:43:39.346Z,99.99
2022-09-23T06:44:39.336Z,99.99
2022-09-23T06:45:39.377Z,99.99
2022-09-23T06:46:39.343Z,99.99
2022-09-23T06:47:39.275Z,99.99
2022-09-23T06:48:42.813Z,99.99
2022-09-23T06:49:40.292Z,99.99
2022-09-23T06:50:39.287Z,99.99
2022-09-23T06:51:39.280Z,99.99
2022-09-23T06:52:39.210Z,99.99
2022-09-23T06:53:39.207Z,99.99
2022-09-23T06:54:39.248Z,99.99
2022-09-23T06:55:39.207Z,99.99
2022-09-23T06:56:39.932Z,99.99
2022-09-23T06:57:39.167Z,99.99
2022-09-23T06:58:39.152Z,99.99
2022-09-23T06:59:39.161Z,99.99
2022-09-23T07:00:39.124Z,99.99
2022-09-23T07:01:39.417Z,99.99
2022-09-23T07:02:39.446Z,99.99
2022-09-23T07:03:39.098Z,99.99
2022-09-23T07:04:39.117Z,99.99
2022-09-23T07:05:39.119Z,99.99
2022-09-23T07:06:39.094Z,99.99
2022-09-23T07:07:39.098Z,99.99
2022-09-23T07:08:39.083Z,99.99
2022-09-23T07:09:39.038Z,99.99
2022-09-23T07:10:39.019Z,99.99
2022-09-23T07:11:39.013Z,99.99
2022-09-23T07:12:39.049Z,99.99
2022-09-23T07:13:39.058Z,99.99
2022-09-23T07:14:38.971Z,99.99
2022-09-23T07:15:39.067Z,99.99
2022-09-23T07:16:38.966Z,99.99
2022-09-23T07:17:38.945Z,99.99
2022-09-23T07:18:39.011Z,99.99
2022-09-23T07:19:38.924Z,99.99
2022-09-23T07:20:38.909Z,99.99
2022-09-23T07:21:38.944Z,99.99
2022-09-23T07:22:38.931Z,99.99
2022-09-23T07:23:38.903Z,99.99
2022-09-23T07:24:38.872Z,99.99
2022-09-23T07:25:38.886Z,99.99
2022-09-23T07:26:43.478Z,99.99
2022-09-23T07:27:39.833Z,99.99
2022-09-23T07:28:38.905Z,99.99
2022-09-23T07:29:48.104Z,99.99
2022-09-23T07:30:44.903Z,99.99
2022-09-23T07:31:40.234Z,99.99
2022-09-23T07:32:47.060Z,99.99
2022-09-23T07:33:40.037Z,99.99
2022-09-23T07:34:38.801Z,99.99
2022-09-23T07:35:38.755Z,99.99
2022-09-23T07:36:38.735Z,99.99
2022-09-23T07:37:38.741Z,99.99
2022-09-23T07:38:44.226Z,99.99
2022-09-23T07:39:39.747Z,99.99
2022-09-23T07:40:38.751Z,99.99
2022-09-23T07:41:38.684Z,99.99
2022-09-23T07:42:38.688Z,99.99
2022-09-23T07:43:38.687Z,99.99
2022-09-23T07:44:38.672Z,99.99
2022-09-23T07:45:38.646Z,99.99
2022-09-23T07:46:38.791Z,99.99
2022-09-23T07:47:38.612Z,99.99
2022-09-23T07:48:38.656Z,99.99
2022-09-23T07:49:38.591Z,99.99
2022-09-23T07:50:38.584Z,99.99
2022-09-23T07:51:38.565Z,99.99
2022-09-23T07:52:38.597Z,99.99
2022-09-23T07:53:38.599Z,99.99
2022-09-23T07:54:38.601Z,99.99
2022-09-23T07:55:38.555Z,99.99
2022-09-23T07:56:38.575Z,99.99
2022-09-23T07:57:38.498Z,99.99
2022-09-23T07:58:38.500Z,99.99
2022-09-23T07:59:38.584Z,99.99
2022-09-23T08:00:38.511Z,99.99
2022-09-23T08:01:38.589Z,99.99
2022-09-23T08:02:38.507Z,99.99
2022-09-23T08:03:38.438Z,99.99
2022-09-23T08:04:38.449Z,99.99
2022-09-23T08:06:30.333Z,99.99
2022-09-23T08:07:30.335Z,99.99
2022-09-23T08:08:30.326Z,99.99
2022-09-23T08:09:30.322Z,99.99
2022-09-23T08:10:30.299Z,99.99
2022-09-23T08:11:30.284Z,99.99
2022-09-23T08:12:30.269Z,99.99
2022-09-23T08:13:30.265Z,99.99
2022-09-23T08:14:30.277Z,99.99
2022-09-23T08:15:30.294Z,99.99
2022-09-23T08:16:30.406Z,99.99
2022-09-23T08:17:30.220Z,99.99
2022-09-23T08:18:30.213Z,99.99
2022-09-23T08:19:30.212Z,99.99
2022-09-23T08:20:30.205Z,99.99
2022-09-23T08:21:30.175Z,99.99
2022-09-23T08:22:30.167Z,99.99
2022-09-23T08:23:30.155Z,99.99
2022-09-23T08:24:30.166Z,99.99
2022-09-23T08:25:33.322Z,99.99
2022-09-23T08:26:30.119Z,99.99
2022-09-23T08:27:30.109Z,99.99
2022-09-23T08:28:30.098Z,99.99
2022-09-23T08:29:30.084Z,99.99
2022-09-23T08:30:30.096Z,99.99
2022-09-23T08:31:30.065Z,99.99
2022-09-23T08:32:30.070Z,99.99
2022-09-23T08:33:30.046Z,99.99
2022-09-23T08:34:30.048Z,99.99
2022-09-23T08:35:30.024Z,99.99
2022-09-23T08:36:30.036Z,99.99
2022-09-23T08:37:29.996Z,99.99
2022-09-23T08:38:29.990Z,99.99
2022-09-23T08:39:30.000Z,99.99
2022-09-23T08:40:30.036Z,99.99
2022-09-23T08:41:29.980Z,99.99
2022-09-23T08:42:29.947Z,99.99
2022-09-23T08:43:29.944Z,99.99
2022-09-23T08:44:29.926Z,99.99
2022-09-23T08:45:29.918Z,99.99
2022-09-23T08:46:29.967Z,99.99
2022-09-23T08:47:29.894Z,99.99
2022-09-23T08:48:29.911Z,99.99
2022-09-23T08:49:29.877Z,99.99
2022-09-23T08:50:29.858Z,99.99
2022-09-23T08:51:29.852Z,99.99
2022-09-23T08:52:29.848Z,99.99
2022-09-23T08:53:29.825Z,99.99
2022-09-23T08:54:29.815Z,99.99
2022-09-23T08:55:29.808Z,99.99
2022-09-23T08:56:29.797Z,99.99
2022-09-23T08:57:29.802Z,99.99
2022-09-23T08:58:29.796Z,99.99
2022-09-23T08:59:29.760Z,99.99
2022-09-23T09:00:29.747Z,99.99
2022-09-23T09:01:29.841Z,99.99
2022-09-23T09:02:29.793Z,99.99
2022-09-23T09:03:29.745Z,99.99
2022-09-23T09:04:29.732Z,99.99
2022-09-23T09:05:29.691Z,99.99
2022-09-23T09:06:29.688Z,99.99
2022-09-23T09:07:36.566Z,99.99
2022-09-23T09:08:30.682Z,99.99
2022-09-23T09:09:29.654Z,99.99
2022-09-23T09:10:29.644Z,99.99
2022-09-23T09:11:29.629Z,99.99
2022-09-23T09:12:29.619Z,99.99
2022-09-23T09:13:29.632Z,99.99
2022-09-23T09:14:29.594Z,99.99
2022-09-23T09:15:29.664Z,99.99
2022-09-23T09:16:55.468Z,99.99
2022-09-23T09:17:34.842Z,99.99
2022-09-23T09:18:29.602Z,99.99
2022-09-23T09:19:29.549Z,99.99
2022-09-23T09:20:29.557Z,99.99
2022-09-23T09:21:29.524Z,99.99
2022-09-23T09:22:29.547Z,99.99
2022-09-23T09:23:29.514Z,99.99
2022-09-23T09:24:29.549Z,99.99
2022-09-23T09:25:33.522Z,99.99
2022-09-23T09:26:29.469Z,99.99
2022-09-23T09:27:29.459Z,99.99
2022-09-23T09:28:29.445Z,99.99
2022-09-23T09:29:36.776Z,99.99
2022-09-23T09:30:30.426Z,99.99
2022-09-23T09:31:29.509Z,99.99
2022-09-23T09:32:29.401Z,99.99
2022-09-23T09:33:29.388Z,99.99
2022-09-23T09:34:29.404Z,99.99
2022-09-23T09:35:29.376Z,99.99
2022-09-23T09:36:30.946Z,99.99
2022-09-23T09:37:31.738Z,99.99
2022-09-23T09:38:29.337Z,99.99
2022-09-23T09:39:29.327Z,99.99
2022-09-23T09:40:29.383Z,99.99
2022-09-23T09:41:29.305Z,99.99
2022-09-23T09:42:29.321Z,99.99
2022-09-23T09:43:32.163Z,99.99
2022-09-23T09:44:29.272Z,99.99
2022-09-23T09:45:29.259Z,99.99
2022-09-23T09:46:29.464Z,99.99
2022-09-23T09:47:29.241Z,99.99
2022-09-23T09:48:29.251Z,99.99
2022-09-23T09:49:29.249Z,99.99
2022-09-23T09:50:29.215Z,99.99
2022-09-23T09:51:29.195Z,99.99
2022-09-23T09:52:29.202Z,99.99
2022-09-23T09:53:29.125Z,99.99
2022-09-23T09:54:29.143Z,99.99
2022-09-23T09:55:29.102Z,99.99
2022-09-23T09:56:29.084Z,99.99
2022-09-23T09:57:32.229Z,99.99
2022-09-23T09:58:30.070Z,99.99
2022-09-23T09:59:29.054Z,99.99
2022-09-23T10:00:29.070Z,99.99
2022-09-23T10:01:29.082Z,99.99
2022-09-23T10:02:29.023Z,99.99
2022-09-23T10:03:29.008Z,99.99
2022-09-23T10:04:29.076Z,99.99
2022-09-23T10:05:28.985Z,99.99
2022-09-23T10:06:28.975Z,99.99
2022-09-23T10:07:29.002Z,99.99
2022-09-23T10:08:28.973Z,99.99
2022-09-23T10:09:28.939Z,99.99
2022-09-23T10:10:32.941Z,99.99
2022-09-23T10:11:28.916Z,99.99
2022-09-23T10:12:28.933Z,99.99
2022-09-23T10:13:28.932Z,99.99
2022-09-23T10:14:28.905Z,99.99
2022-09-23T10:15:28.872Z,99.99
2022-09-23T10:16:28.893Z,99.99
2022-09-23T10:17:28.851Z,99.99
2022-09-23T10:18:28.851Z,99.99
2022-09-23T10:19:28.851Z,99.99
2022-09-23T10:20:28.814Z,99.99
2022-09-23T10:21:28.830Z,99.99
2022-09-23T10:22:28.797Z,99.99
2022-09-23T10:23:28.788Z,99.99
2022-09-23T10:24:28.795Z,99.99
2022-09-23T10:25:28.789Z,99.99
2022-09-23T10:26:28.775Z,99.99
2022-09-23T10:27:28.748Z,99.99
2022-09-23T10:28:28.730Z,99.99
2022-09-23T10:29:28.722Z,99.99
2022-09-23T10:30:28.756Z,99.99
2022-09-23T10:31:28.707Z,99.99
2022-09-23T10:32:28.689Z,99.99
2022-09-23T10:33:28.678Z,99.99
2022-09-23T10:34:28.666Z,99.99
2022-09-23T10:35:28.684Z,99.99
2022-09-23T10:36:28.650Z,99.99
2022-09-23T10:37:28.642Z,99.99
2022-09-23T10:38:28.638Z,99.99
2022-09-23T10:39:28.626Z,99.99
2022-09-23T10:40:28.740Z,99.99
2022-09-23T10:41:28.594Z,99.99
2022-09-23T10:42:28.581Z,99.99
2022-09-23T10:43:28.620Z,99.99
2022-09-23T10:44:28.567Z,99.99
2022-09-23T10:45:28.554Z,99.99
2022-09-23T10:46:28.640Z,99.99
2022-09-23T10:47:28.546Z,99.99
2022-09-23T10:48:28.551Z,99.99
2022-09-23T10:49:28.534Z,99.99
2022-09-23T10:50:28.500Z,99.99
2022-09-23T10:51:28.488Z,99.99
2022-09-23T10:52:28.481Z,99.99
2022-09-23T10:53:28.507Z,99.99
2022-09-23T10:54:28.479Z,99.99
2022-09-23T10:55:28.451Z,99.99
2022-09-23T10:56:28.465Z,99.99
2022-09-23T10:57:28.427Z,99.99
2022-09-23T10:58:28.421Z,99.99
2022-09-23T10:59:28.426Z,99.99
2022-09-23T11:00:28.396Z,99.99
2022-09-23T11:01:28.431Z,99.99
2022-09-23T11:02:28.382Z,99.99
2022-09-23T11:03:28.365Z,99.99
2022-09-23T11:04:28.388Z,99.99
2022-09-23T11:05:28.340Z,99.99
2022-09-23T11:06:28.347Z,99.99
2022-09-23T11:07:28.325Z,99.99
2022-09-23T11:08:28.315Z,99.99
2022-09-23T11:09:28.324Z,99.99
2022-09-23T11:10:45.508Z,99.99
2022-09-23T11:11:29.281Z,99.99
2022-09-23T11:12:28.288Z,99.99
2022-09-23T11:13:28.262Z,99.99
2022-09-23T11:14:28.279Z,99.99
2022-09-23T11:15:28.249Z,99.99
2022-09-23T11:16:28.285Z,99.99
2022-09-23T11:17:28.222Z,99.99
2022-09-23T11:18:28.211Z,99.99
2022-09-23T11:19:28.219Z,99.99
2022-09-23T11:20:28.193Z,99.99
2022-09-23T11:21:28.178Z,99.99
2022-09-23T11:22:28.173Z,99.99
2022-09-23T11:23:28.155Z,99.99
2022-09-23T11:24:28.173Z,99.99
2022-09-23T11:25:28.155Z,99.99
2022-09-23T11:26:32.828Z,99.99
2022-09-23T11:27:29.125Z,99.99
2022-09-23T11:28:28.130Z,99.99
2022-09-23T11:29:28.120Z,99.99
2022-09-23T11:30:28.152Z,99.99
2022-09-23T11:31:28.074Z,99.99
2022-09-23T11:32:28.060Z,99.99
2022-09-23T11:33:28.069Z,99.99
2022-09-23T11:34:28.042Z,99.99
2022-09-23T11:35:28.054Z,99.99
2022-09-23T11:36:28.024Z,99.99
2022-09-23T11:37:28.013Z,99.99
2022-09-23T11:38:28.039Z,99.99
2022-09-23T11:39:27.992Z,99.99
2022-09-23T11:40:28.027Z,99.99
2022-09-23T11:41:27.962Z,99.99
2022-09-23T11:42:27.959Z,99.99
2022-09-23T11:43:27.947Z,99.99
2022-09-23T11:44:27.974Z,99.99
2022-09-23T11:45:27.936Z,99.99
2022-09-23T11:46:28.002Z,99.99
2022-09-23T11:47:27.913Z,99.99
2022-09-23T11:48:27.889Z,99.99
2022-09-23T11:49:27.877Z,99.99
2022-09-23T11:50:27.874Z,99.99
2022-09-23T11:51:27.875Z,99.99
2022-09-23T11:52:27.851Z,99.99
2022-09-23T11:53:27.840Z,99.99
2022-09-23T11:54:27.828Z,99.99
2022-09-23T11:55:27.837Z,99.99
2022-09-23T11:56:34.636Z,99.99
2022-09-23T11:57:33.375Z,99.99
2022-09-23T11:58:28.841Z,99.99
2022-09-23T11:59:38.481Z,99.99
2022-09-23T12:00:28.787Z,99.99
2022-09-23T12:01:35.995Z,99.99
2022-09-23T12:02:31.001Z,99.99
2022-09-23T12:03:39.674Z,99.99
2022-09-23T12:04:29.431Z,99.99
2022-09-23T12:05:27.808Z,99.99
2022-09-23T12:06:27.701Z,99.99
2022-09-23T12:07:28.052Z,99.99
2022-09-23T12:08:27.694Z,99.99
2022-09-23T12:09:54.047Z,99.99
2022-09-23T12:10:28.676Z,99.99
2022-09-23T12:11:27.671Z,99.99
2022-09-23T12:12:27.661Z,99.99
2022-09-23T12:13:27.627Z,99.99
2022-09-23T12:14:27.618Z,99.99
2022-09-23T12:15:27.605Z,99.99
2022-09-23T12:16:27.687Z,99.99
2022-09-23T12:17:27.595Z,99.99
2022-09-23T12:18:27.570Z,99.68
2022-09-23T12:19:27.569Z,99.79
2022-09-23T12:20:27.551Z,99.24
2022-09-23T12:21:49.197Z,99.19
2022-09-23T12:22:28.558Z,98.54
2022-09-23T12:23:27.522Z,98.30
2022-09-23T12:24:27.513Z,98.10
2022-09-23T12:25:27.502Z,98.10
2022-09-23T12:26:27.492Z,98.10
2022-09-23T12:27:27.496Z,98.30
2022-09-23T12:28:27.464Z,98.19
2022-09-23T12:30:27.572Z,98.30
2022-09-23T12:31:27.440Z,98.25
2022-09-23T12:32:27.473Z,97.65
2022-09-23T12:33:27.415Z,98.25
2022-09-23T12:34:27.407Z,98.15
2022-09-23T12:35:27.398Z,97.95
2022-09-23T12:36:27.384Z,97.95
2022-09-23T12:37:27.384Z,97.90
2022-09-23T12:38:27.386Z,97.11
2022-09-23T12:39:27.345Z,97.41
2022-09-23T12:40:27.369Z,97.16
2022-09-23T12:41:27.332Z,97.30
2022-09-23T12:42:30.916Z,97.45
2022-09-23T12:43:27.328Z,97.06
2022-09-23T12:44:27.299Z,97.66
2022-09-23T12:45:27.283Z,97.66
2022-09-23T12:46:27.325Z,97.06
2022-09-23T12:47:27.266Z,97.26
2022-09-23T12:48:27.394Z,97.41
2022-09-23T12:49:27.243Z,97.41
2022-09-23T12:50:27.229Z,96.91
2022-09-23T12:51:27.217Z,96.37
2022-09-23T12:52:27.210Z,96.67
2022-09-23T12:53:27.218Z,96.47
2022-09-23T12:54:27.208Z,96.77